UTA weather

Mutare Airport
Mutare, Manicaland Province, Zimbabwe

Public forecast

Using degrees Celsius for public forecast. Weather courtesy of forecast.io.

Closest aviation weather report (METAR) to Mutare Airport

Closest report is Chimoio Airport, 46.4 nm (86.0 km) ESE. Retrieved 2020/05/27 14:00 UTC (52 minutes ago):

FQCH 271400Z /////KT 9999 FEW025 26/13 Q1019

Closest aviation forecast (TAF) to Mutare Airport

Closest forecast is Chimoio Airport, 46.4 nm (86.0 km) ESE. Retrieved 2020/05/27 12:00 UTC (3 hours ago):

TAF FQCH 271000Z 2712/2812 08008KT 9999 FEW025 TX29/2713Z TN16/2803Z BECMG 2718/2720 23010KT BECMG 2806/2808 03012KT